sensor_id;sensor_type;location;lat;lon;timestamp;P1;durP1;ratioP1;P2;durP2;ratioP2
71963;SDS011;59834;52.124;5.422;2022-10-31T00:01:17;10.70;;;4.25;;
71963;SDS011;59834;52.124;5.422;2022-10-31T00:03:46;5.57;;;4.00;;
71963;SDS011;59834;52.124;5.422;2022-10-31T00:06:13;8.32;;;3.92;;
71963;SDS011;59834;52.124;5.422;2022-10-31T00:08:40;8.52;;;3.88;;
71963;SDS011;59834;52.124;5.422;2022-10-31T00:11:10;10.60;;;3.65;;
71963;SDS011;59834;52.124;5.422;2022-10-31T00:13:37;7.20;;;4.07;;
71963;SDS011;59834;52.124;5.422;2022-10-31T00:16:04;9.10;;;4.10;;
71963;SDS011;59834;52.124;5.422;2022-10-31T00:18:31;9.10;;;4.15;;
71963;SDS011;59834;52.124;5.422;2022-10-31T00:21:01;9.32;;;4.20;;
71963;SDS011;59834;52.124;5.422;2022-10-31T00:23:29;8.43;;;3.20;;
71963;SDS011;59834;52.124;5.422;2022-10-31T00:25:59;6.18;;;3.63;;
71963;SDS011;59834;52.124;5.422;2022-10-31T00:28:28;8.33;;;4.30;;
71963;SDS011;59834;52.124;5.422;2022-10-31T00:31:03;5.63;;;4.10;;
71963;SDS011;59834;52.124;5.422;2022-10-31T00:33:35;10.82;;;5.72;;
71963;SDS011;59834;52.124;5.422;2022-10-31T00:36:04;10.00;;;3.95;;
71963;SDS011;59834;52.124;5.422;2022-10-31T00:38:32;6.13;;;4.78;;
71963;SDS011;59834;52.124;5.422;2022-10-31T00:40:59;6.90;;;4.27;;
71963;SDS011;59834;52.124;5.422;2022-10-31T00:43:26;9.55;;;5.30;;
71963;SDS011;59834;52.124;5.422;2022-10-31T00:45:52;9.70;;;5.97;;
71963;SDS011;59834;52.124;5.422;2022-10-31T00:48:19;7.50;;;4.40;;
71963;SDS011;59834;52.124;5.422;2022-10-31T00:50:45;11.07;;;4.53;;
71963;SDS011;59834;52.124;5.422;2022-10-31T00:53:12;11.57;;;4.10;;
71963;SDS011;59834;52.124;5.422;2022-10-31T00:55:38;7.97;;;3.90;;
71963;SDS011;59834;52.124;5.422;2022-10-31T00:58:06;5.85;;;4.40;;
71963;SDS011;59834;52.124;5.422;2022-10-31T01:00:33;9.38;;;4.07;;
71963;SDS011;59834;52.124;5.422;2022-10-31T01:02:59;9.90;;;4.00;;
71963;SDS011;59834;52.124;5.422;2022-10-31T01:05:26;5.60;;;3.93;;
71963;SDS011;59834;52.124;5.422;2022-10-31T01:07:53;7.95;;;4.53;;
71963;SDS011;59834;52.124;5.422;2022-10-31T01:10:20;6.57;;;4.30;;
71963;SDS011;59834;52.124;5.422;2022-10-31T01:12:47;14.77;;;4.43;;
71963;SDS011;59834;52.124;5.422;2022-10-31T01:15:17;11.73;;;4.57;;
71963;SDS011;59834;52.124;5.422;2022-10-31T01:17:46;10.27;;;4.30;;
71963;SDS011;59834;52.124;5.422;2022-10-31T01:20:14;9.93;;;4.53;;
71963;SDS011;59834;52.124;5.422;2022-10-31T01:22:41;7.13;;;4.30;;
71963;SDS011;59834;52.124;5.422;2022-10-31T01:25:08;6.55;;;3.90;;
71963;SDS011;59834;52.124;5.422;2022-10-31T01:27:35;10.07;;;4.13;;
71963;SDS011;59834;52.124;5.422;2022-10-31T01:30:02;8.60;;;4.70;;
71963;SDS011;59834;52.124;5.422;2022-10-31T01:32:29;7.85;;;4.20;;
71963;SDS011;59834;52.124;5.422;2022-10-31T01:34:55;6.57;;;4.90;;
71963;SDS011;59834;52.124;5.422;2022-10-31T01:37:22;8.23;;;4.68;;
71963;SDS011;59834;52.124;5.422;2022-10-31T01:39:48;6.10;;;4.32;;
71963;SDS011;59834;52.124;5.422;2022-10-31T01:42:19;6.50;;;3.90;;
71963;SDS011;59834;52.124;5.422;2022-10-31T01:44:51;6.07;;;4.35;;
71963;SDS011;59834;52.124;5.422;2022-10-31T01:47:30;9.95;;;4.07;;
71963;SDS011;59834;52.124;5.422;2022-10-31T01:50:03;6.20;;;4.80;;
71963;SDS011;59834;52.124;5.422;2022-10-31T01:57:41;8.00;;;4.05;;
71963;SDS011;59834;52.124;5.422;2022-10-31T02:00:12;10.82;;;4.90;;
71963;SDS011;59834;52.124;5.422;2022-10-31T02:02:39;6.80;;;3.90;;
71963;SDS011;59834;52.124;5.422;2022-10-31T02:05:08;8.15;;;5.07;;
71963;SDS011;59834;52.124;5.422;2022-10-31T02:10:44;8.75;;;4.15;;
71963;SDS011;59834;52.124;5.422;2022-10-31T02:13:10;12.23;;;5.25;;
71963;SDS011;59834;52.124;5.422;2022-10-31T02:15:39;5.18;;;3.85;;
71963;SDS011;59834;52.124;5.422;2022-10-31T02:18:07;8.75;;;4.63;;
71963;SDS011;59834;52.124;5.422;2022-10-31T02:27:07;9.68;;;4.07;;
71963;SDS011;59834;52.124;5.422;2022-10-31T02:37:51;6.10;;;3.85;;
71963;SDS011;59834;52.124;5.422;2022-10-31T02:40:35;4.38;;;3.30;;
71963;SDS011;59834;52.124;5.422;2022-10-31T02:43:12;5.90;;;3.15;;
71963;SDS011;59834;52.124;5.422;2022-10-31T02:46:03;6.88;;;3.65;;
71963;SDS011;59834;52.124;5.422;2022-10-31T02:48:39;7.40;;;3.47;;
71963;SDS011;59834;52.124;5.422;2022-10-31T02:51:09;5.45;;;2.97;;
71963;SDS011;59834;52.124;5.422;2022-10-31T02:53:37;9.65;;;3.72;;
71963;SDS011;59834;52.124;5.422;2022-10-31T02:56:06;6.57;;;3.25;;
71963;SDS011;59834;52.124;5.422;2022-10-31T02:58:42;5.70;;;4.30;;
71963;SDS011;59834;52.124;5.422;2022-10-31T03:10:00;6.88;;;3.15;;
71963;SDS011;59834;52.124;5.422;2022-10-31T03:15:23;5.70;;;3.20;;
71963;SDS011;59834;52.124;5.422;2022-10-31T03:17:59;6.18;;;3.60;;
71963;SDS011;59834;52.124;5.422;2022-10-31T03:20:33;7.00;;;3.45;;
71963;SDS011;59834;52.124;5.422;2022-10-31T03:23:14;5.15;;;3.58;;
71963;SDS011;59834;52.124;5.422;2022-10-31T03:25:44;5.10;;;3.10;;
71963;SDS011;59834;52.124;5.422;2022-10-31T03:28:12;8.40;;;3.63;;
71963;SDS011;59834;52.124;5.422;2022-10-31T03:30:42;6.95;;;3.38;;
71963;SDS011;59834;52.124;5.422;2022-10-31T03:33:13;6.00;;;3.60;;
71963;SDS011;59834;52.124;5.422;2022-10-31T03:35:43;5.78;;;3.03;;
71963;SDS011;59834;52.124;5.422;2022-10-31T03:38:14;5.38;;;2.85;;
71963;SDS011;59834;52.124;5.422;2022-10-31T03:40:42;6.10;;;3.37;;
71963;SDS011;59834;52.124;5.422;2022-10-31T03:43:13;5.63;;;3.70;;
71963;SDS011;59834;52.124;5.422;2022-10-31T03:45:46;8.40;;;3.30;;
71963;SDS011;59834;52.124;5.422;2022-10-31T03:48:14;8.00;;;3.05;;
71963;SDS011;59834;52.124;5.422;2022-10-31T03:50:49;5.53;;;2.90;;
71963;SDS011;59834;52.124;5.422;2022-10-31T03:53:22;6.00;;;3.13;;
71963;SDS011;59834;52.124;5.422;2022-10-31T03:55:58;4.85;;;2.80;;
71963;SDS011;59834;52.124;5.422;2022-10-31T03:58:35;5.07;;;2.63;;
71963;SDS011;59834;52.124;5.422;2022-10-31T04:01:06;3.58;;;2.78;;
71963;SDS011;59834;52.124;5.422;2022-10-31T04:03:38;5.93;;;3.05;;
71963;SDS011;59834;52.124;5.422;2022-10-31T04:06:06;3.60;;;2.40;;
71963;SDS011;59834;52.124;5.422;2022-10-31T04:08:38;5.90;;;2.22;;
71963;SDS011;59834;52.124;5.422;2022-10-31T04:11:09;3.95;;;2.13;;
71963;SDS011;59834;52.124;5.422;2022-10-31T04:13:39;4.78;;;1.95;;
71963;SDS011;59834;52.124;5.422;2022-10-31T04:16:07;21.70;;;2.30;;
71963;SDS011;59834;52.124;5.422;2022-10-31T04:18:41;2.50;;;1.67;;
71963;SDS011;59834;52.124;5.422;2022-10-31T04:21:08;3.60;;;1.88;;
71963;SDS011;59834;52.124;5.422;2022-10-31T04:23:35;3.45;;;1.63;;
71963;SDS011;59834;52.124;5.422;2022-10-31T04:26:02;3.95;;;2.25;;
71963;SDS011;59834;52.124;5.422;2022-10-31T04:28:29;2.63;;;1.80;;
71963;SDS011;59834;52.124;5.422;2022-10-31T04:30:55;3.07;;;1.83;;
71963;SDS011;59834;52.124;5.422;2022-10-31T04:33:22;3.97;;;2.50;;
71963;SDS011;59834;52.124;5.422;2022-10-31T04:35:48;4.20;;;2.20;;
71963;SDS011;59834;52.124;5.422;2022-10-31T04:38:15;6.22;;;2.70;;
71963;SDS011;59834;52.124;5.422;2022-10-31T04:40:42;3.95;;;2.70;;
71963;SDS011;59834;52.124;5.422;2022-10-31T04:43:08;5.27;;;2.40;;
71963;SDS011;59834;52.124;5.422;2022-10-31T04:45:35;7.55;;;3.05;;
71963;SDS011;59834;52.124;5.422;2022-10-31T04:48:02;11.48;;;3.45;;
71963;SDS011;59834;52.124;5.422;2022-10-31T04:50:29;26.50;;;5.32;;
71963;SDS011;59834;52.124;5.422;2022-10-31T04:52:55;13.60;;;4.65;;
71963;SDS011;59834;52.124;5.422;2022-10-31T04:55:22;18.17;;;5.13;;
71963;SDS011;59834;52.124;5.422;2022-10-31T04:57:48;68.10;;;5.53;;
71963;SDS011;59834;52.124;5.422;2022-10-31T05:00:17;26.02;;;4.88;;
71963;SDS011;59834;52.124;5.422;2022-10-31T05:02:47;8.95;;;4.40;;
71963;SDS011;59834;52.124;5.422;2022-10-31T05:05:15;10.48;;;3.90;;
71963;SDS011;59834;52.124;5.422;2022-10-31T05:07:44;12.23;;;3.60;;
71963;SDS011;59834;52.124;5.422;2022-10-31T05:10:11;9.30;;;4.22;;
71963;SDS011;59834;52.124;5.422;2022-10-31T05:12:48;6.53;;;3.83;;
71963;SDS011;59834;52.124;5.422;2022-10-31T05:15:16;11.00;;;4.40;;
71963;SDS011;59834;52.124;5.422;2022-10-31T05:17:44;9.35;;;4.93;;
71963;SDS011;59834;52.124;5.422;2022-10-31T05:20:11;11.57;;;4.63;;
71963;SDS011;59834;52.124;5.422;2022-10-31T05:22:46;22.92;;;5.20;;
71963;SDS011;59834;52.124;5.422;2022-10-31T05:25:14;21.20;;;5.53;;
71963;SDS011;59834;52.124;5.422;2022-10-31T05:27:42;66.60;;;6.45;;
71963;SDS011;59834;52.124;5.422;2022-10-31T05:30:11;23.90;;;5.32;;
71963;SDS011;59834;52.124;5.422;2022-10-31T05:32:46;18.77;;;4.50;;
71963;SDS011;59834;52.124;5.422;2022-10-31T05:35:19;14.00;;;5.00;;
71963;SDS011;59834;52.124;5.422;2022-10-31T05:37:47;52.80;;;7.05;;
71963;SDS011;59834;52.124;5.422;2022-10-31T05:40:15;70.70;;;6.05;;
71963;SDS011;59834;52.124;5.422;2022-10-31T05:42:43;67.63;;;5.63;;
71963;SDS011;59834;52.124;5.422;2022-10-31T05:45:11;44.87;;;4.73;;
71963;SDS011;59834;52.124;5.422;2022-10-31T05:47:40;24.83;;;4.28;;
71963;SDS011;59834;52.124;5.422;2022-10-31T05:50:08;11.35;;;5.07;;
71963;SDS011;59834;52.124;5.422;2022-10-31T05:52:36;6.80;;;4.35;;
71963;SDS011;59834;52.124;5.422;2022-10-31T05:55:03;8.02;;;4.50;;
71963;SDS011;59834;52.124;5.422;2022-10-31T05:57:31;11.00;;;4.63;;
71963;SDS011;59834;52.124;5.422;2022-10-31T05:59:58;10.82;;;3.72;;
71963;SDS011;59834;52.124;5.422;2022-10-31T06:02:25;10.43;;;3.90;;
71963;SDS011;59834;52.124;5.422;2022-10-31T06:04:52;11.40;;;4.15;;
71963;SDS011;59834;52.124;5.422;2022-10-31T06:07:19;17.13;;;4.70;;
71963;SDS011;59834;52.124;5.422;2022-10-31T06:09:46;17.60;;;5.20;;
71963;SDS011;59834;52.124;5.422;2022-10-31T06:12:12;39.25;;;4.70;;
71963;SDS011;59834;52.124;5.422;2022-10-31T06:14:39;35.10;;;4.90;;
71963;SDS011;59834;52.124;5.422;2022-10-31T06:17:05;40.58;;;4.78;;
71963;SDS011;59834;52.124;5.422;2022-10-31T06:19:32;37.67;;;5.47;;
71963;SDS011;59834;52.124;5.422;2022-10-31T06:21:58;44.67;;;4.13;;
71963;SDS011;59834;52.124;5.422;2022-10-31T06:24:25;53.92;;;3.55;;
71963;SDS011;59834;52.124;5.422;2022-10-31T06:26:51;28.92;;;4.03;;
71963;SDS011;59834;52.124;5.422;2022-10-31T06:29:18;32.63;;;4.03;;
71963;SDS011;59834;52.124;5.422;2022-10-31T06:31:44;51.55;;;4.30;;
71963;SDS011;59834;52.124;5.422;2022-10-31T06:34:11;41.63;;;4.53;;
71963;SDS011;59834;52.124;5.422;2022-10-31T06:36:37;31.73;;;3.85;;
71963;SDS011;59834;52.124;5.422;2022-10-31T06:39:04;18.95;;;4.18;;
71963;SDS011;59834;52.124;5.422;2022-10-31T06:41:30;25.88;;;3.63;;
71963;SDS011;59834;52.124;5.422;2022-10-31T06:43:58;17.33;;;4.00;;
71963;SDS011;59834;52.124;5.422;2022-10-31T06:46:29;32.73;;;4.73;;
71963;SDS011;59834;52.124;5.422;2022-10-31T06:48:56;25.92;;;4.53;;
71963;SDS011;59834;52.124;5.422;2022-10-31T06:51:22;20.90;;;5.22;;
71963;SDS011;59834;52.124;5.422;2022-10-31T06:53:49;22.52;;;4.20;;
71963;SDS011;59834;52.124;5.422;2022-10-31T06:56:15;38.25;;;5.57;;
71963;SDS011;59834;52.124;5.422;2022-10-31T06:58:42;41.33;;;4.73;;
71963;SDS011;59834;52.124;5.422;2022-10-31T07:01:08;55.72;;;5.30;;
71963;SDS011;59834;52.124;5.422;2022-10-31T07:03:35;49.85;;;5.10;;
71963;SDS011;59834;52.124;5.422;2022-10-31T07:06:01;56.15;;;6.63;;
71963;SDS011;59834;52.124;5.422;2022-10-31T07:08:28;28.58;;;6.57;;
71963;SDS011;59834;52.124;5.422;2022-10-31T07:10:55;55.77;;;7.33;;
71963;SDS011;59834;52.124;5.422;2022-10-31T07:13:23;68.07;;;5.93;;
71963;SDS011;59834;52.124;5.422;2022-10-31T07:15:54;73.60;;;7.05;;
71963;SDS011;59834;52.124;5.422;2022-10-31T07:18:22;54.65;;;6.38;;
71963;SDS011;59834;52.124;5.422;2022-10-31T07:20:48;52.67;;;6.15;;
71963;SDS011;59834;52.124;5.422;2022-10-31T07:23:15;48.20;;;6.27;;
71963;SDS011;59834;52.124;5.422;2022-10-31T07:25:41;111.68;;;7.47;;
71963;SDS011;59834;52.124;5.422;2022-10-31T07:28:08;109.32;;;5.97;;
71963;SDS011;59834;52.124;5.422;2022-10-31T07:30:35;110.45;;;7.28;;
71963;SDS011;59834;52.124;5.422;2022-10-31T07:33:02;78.45;;;5.97;;
71963;SDS011;59834;52.124;5.422;2022-10-31T07:35:30;129.17;;;9.93;;
71963;SDS011;59834;52.124;5.422;2022-10-31T07:37:56;119.28;;;6.72;;
71963;SDS011;59834;52.124;5.422;2022-10-31T07:40:24;88.97;;;7.30;;
71963;SDS011;59834;52.124;5.422;2022-10-31T07:42:52;50.17;;;5.95;;
71963;SDS011;59834;52.124;5.422;2022-10-31T07:45:19;52.05;;;6.75;;
71963;SDS011;59834;52.124;5.422;2022-10-31T07:47:47;95.77;;;6.97;;
71963;SDS011;59834;52.124;5.422;2022-10-31T07:50:17;67.70;;;6.32;;
71963;SDS011;59834;52.124;5.422;2022-10-31T07:52:46;51.03;;;6.38;;
71963;SDS011;59834;52.124;5.422;2022-10-31T07:55:12;42.20;;;5.65;;
71963;SDS011;59834;52.124;5.422;2022-10-31T07:57:40;23.90;;;6.15;;
71963;SDS011;59834;52.124;5.422;2022-10-31T08:00:07;38.87;;;5.47;;
71963;SDS011;59834;52.124;5.422;2022-10-31T08:02:35;39.05;;;5.85;;
71963;SDS011;59834;52.124;5.422;2022-10-31T08:05:02;65.43;;;6.72;;
71963;SDS011;59834;52.124;5.422;2022-10-31T08:07:29;60.63;;;6.97;;
71963;SDS011;59834;52.124;5.422;2022-10-31T08:09:56;48.97;;;6.85;;
71963;SDS011;59834;52.124;5.422;2022-10-31T08:12:24;99.80;;;9.47;;
71963;SDS011;59834;52.124;5.422;2022-10-31T08:14:50;63.05;;;7.32;;
71963;SDS011;59834;52.124;5.422;2022-10-31T08:17:17;36.78;;;7.38;;
71963;SDS011;59834;52.124;5.422;2022-10-31T08:19:43;67.05;;;9.43;;
71963;SDS011;59834;52.124;5.422;2022-10-31T08:22:10;59.60;;;7.78;;
71963;SDS011;59834;52.124;5.422;2022-10-31T08:24:37;72.00;;;9.60;;
71963;SDS011;59834;52.124;5.422;2022-10-31T08:27:09;73.97;;;8.02;;
71963;SDS011;59834;52.124;5.422;2022-10-31T08:29:35;46.08;;;9.43;;
71963;SDS011;59834;52.124;5.422;2022-10-31T08:32:02;51.92;;;7.95;;
71963;SDS011;59834;52.124;5.422;2022-10-31T08:34:30;43.50;;;7.75;;
71963;SDS011;59834;52.124;5.422;2022-10-31T08:36:57;33.83;;;8.10;;
71963;SDS011;59834;52.124;5.422;2022-10-31T08:39:24;24.15;;;6.85;;
71963;SDS011;59834;52.124;5.422;2022-10-31T08:41:52;18.25;;;7.45;;
71963;SDS011;59834;52.124;5.422;2022-10-31T08:44:18;22.52;;;7.68;;
71963;SDS011;59834;52.124;5.422;2022-10-31T08:46:45;28.60;;;8.18;;
71963;SDS011;59834;52.124;5.422;2022-10-31T08:49:12;8.77;;;7.07;;
71963;SDS011;59834;52.124;5.422;2022-10-31T08:51:38;19.15;;;7.93;;
71963;SDS011;59834;52.124;5.422;2022-10-31T08:54:05;11.60;;;7.00;;
71963;SDS011;59834;52.124;5.422;2022-10-31T08:56:31;13.43;;;8.38;;
71963;SDS011;59834;52.124;5.422;2022-10-31T08:58:58;12.30;;;7.55;;
71963;SDS011;59834;52.124;5.422;2022-10-31T09:01:25;12.77;;;8.57;;
71963;SDS011;59834;52.124;5.422;2022-10-31T09:03:51;14.23;;;8.00;;
71963;SDS011;59834;52.124;5.422;2022-10-31T09:06:18;11.13;;;7.47;;
71963;SDS011;59834;52.124;5.422;2022-10-31T09:08:45;13.43;;;8.20;;
71963;SDS011;59834;52.124;5.422;2022-10-31T09:11:12;13.77;;;9.13;;
71963;SDS011;59834;52.124;5.422;2022-10-31T09:13:38;12.07;;;8.83;;
71963;SDS011;59834;52.124;5.422;2022-10-31T09:16:06;15.20;;;8.18;;
71963;SDS011;59834;52.124;5.422;2022-10-31T09:18:33;13.10;;;9.88;;
71963;SDS011;59834;52.124;5.422;2022-10-31T09:21:00;15.85;;;9.98;;
71963;SDS011;59834;52.124;5.422;2022-10-31T09:23:27;16.50;;;9.50;;
71963;SDS011;59834;52.124;5.422;2022-10-31T09:25:54;15.60;;;10.73;;
71963;SDS011;59834;52.124;5.422;2022-10-31T09:28:22;16.13;;;10.77;;
71963;SDS011;59834;52.124;5.422;2022-10-31T09:30:51;19.30;;;10.57;;
71963;SDS011;59834;52.124;5.422;2022-10-31T09:33:19;14.52;;;10.40;;
71963;SDS011;59834;52.124;5.422;2022-10-31T09:35:46;13.48;;;10.57;;
71963;SDS011;59834;52.124;5.422;2022-10-31T09:38:17;16.50;;;11.10;;
71963;SDS011;59834;52.124;5.422;2022-10-31T09:40:55;17.35;;;10.85;;
71963;SDS011;59834;52.124;5.422;2022-10-31T09:52:01;14.17;;;10.50;;
71963;SDS011;59834;52.124;5.422;2022-10-31T09:54:36;20.08;;;10.60;;
71963;SDS011;59834;52.124;5.422;2022-10-31T09:57:14;15.00;;;11.20;;
71963;SDS011;59834;52.124;5.422;2022-10-31T09:59:45;17.02;;;11.43;;
71963;SDS011;59834;52.124;5.422;2022-10-31T10:04:58;17.00;;;9.73;;
71963;SDS011;59834;52.124;5.422;2022-10-31T10:07:35;18.10;;;11.25;;
71963;SDS011;59834;52.124;5.422;2022-10-31T10:10:12;19.05;;;10.70;;
71963;SDS011;59834;52.124;5.422;2022-10-31T10:26:16;15.27;;;9.93;;
71963;SDS011;59834;52.124;5.422;2022-10-31T10:28:47;15.52;;;7.90;;
71963;SDS011;59834;52.124;5.422;2022-10-31T10:31:22;9.80;;;7.30;;
71963;SDS011;59834;52.124;5.422;2022-10-31T10:36:36;12.82;;;8.27;;
71963;SDS011;59834;52.124;5.422;2022-10-31T10:39:11;13.00;;;7.13;;
71963;SDS011;59834;52.124;5.422;2022-10-31T10:41:44;18.65;;;7.30;;
71963;SDS011;59834;52.124;5.422;2022-10-31T10:44:37;12.07;;;7.03;;
71963;SDS011;59834;52.124;5.422;2022-10-31T10:47:25;14.20;;;6.50;;
71963;SDS011;59834;52.124;5.422;2022-10-31T10:55:24;12.25;;;8.18;;
71963;SDS011;59834;52.124;5.422;2022-10-31T10:58:04;14.40;;;7.60;;
71963;SDS011;59834;52.124;5.422;2022-10-31T11:00:46;15.82;;;7.30;;
71963;SDS011;59834;52.124;5.422;2022-10-31T11:03:14;13.65;;;7.40;;
71963;SDS011;59834;52.124;5.422;2022-10-31T11:08:11;12.20;;;7.82;;
71963;SDS011;59834;52.124;5.422;2022-10-31T11:10:57;12.27;;;7.47;;
71963;SDS011;59834;52.124;5.422;2022-10-31T11:13:30;17.08;;;8.50;;
71963;SDS011;59834;52.124;5.422;2022-10-31T11:16:03;13.27;;;8.25;;
71963;SDS011;59834;52.124;5.422;2022-10-31T11:18:33;11.63;;;7.85;;
71963;SDS011;59834;52.124;5.422;2022-10-31T11:21:03;11.05;;;6.57;;
71963;SDS011;59834;52.124;5.422;2022-10-31T11:23:30;12.73;;;8.30;;
71963;SDS011;59834;52.124;5.422;2022-10-31T11:26:00;13.25;;;7.85;;
71963;SDS011;59834;52.124;5.422;2022-10-31T11:28:29;16.27;;;7.75;;
71963;SDS011;59834;52.124;5.422;2022-10-31T11:30:57;14.60;;;7.88;;
71963;SDS011;59834;52.124;5.422;2022-10-31T11:33:32;14.18;;;9.50;;
71963;SDS011;59834;52.124;5.422;2022-10-31T11:36:03;14.33;;;8.47;;
71963;SDS011;59834;52.124;5.422;2022-10-31T11:38:42;16.83;;;8.55;;
71963;SDS011;59834;52.124;5.422;2022-10-31T11:43:36;18.00;;;9.38;;
71963;SDS011;59834;52.124;5.422;2022-10-31T11:46:10;18.65;;;9.27;;
71963;SDS011;59834;52.124;5.422;2022-10-31T11:48:45;16.87;;;9.23;;
71963;SDS011;59834;52.124;5.422;2022-10-31T11:51:19;18.20;;;9.77;;
71963;SDS011;59834;52.124;5.422;2022-10-31T11:53:51;24.08;;;11.13;;
71963;SDS011;59834;52.124;5.422;2022-10-31T11:56:27;23.90;;;10.02;;
71963;SDS011;59834;52.124;5.422;2022-10-31T11:58:55;19.55;;;10.23;;
71963;SDS011;59834;52.124;5.422;2022-10-31T12:01:30;23.47;;;11.30;;
71963;SDS011;59834;52.124;5.422;2022-10-31T12:06:29;23.95;;;12.75;;
71963;SDS011;59834;52.124;5.422;2022-10-31T12:09:04;26.42;;;11.75;;
71963;SDS011;59834;52.124;5.422;2022-10-31T12:23:49;23.35;;;12.35;;
71963;SDS011;59834;52.124;5.422;2022-10-31T12:34:52;22.73;;;12.32;;
71963;SDS011;59834;52.124;5.422;2022-10-31T12:37:44;30.90;;;13.30;;
71963;SDS011;59834;52.124;5.422;2022-10-31T12:46:11;31.52;;;13.07;;
71963;SDS011;59834;52.124;5.422;2022-10-31T12:51:57;22.08;;;12.40;;
71963;SDS011;59834;52.124;5.422;2022-10-31T12:54:50;29.90;;;13.05;;
71963;SDS011;59834;52.124;5.422;2022-10-31T12:59:45;30.55;;;13.48;;
71963;SDS011;59834;52.124;5.422;2022-10-31T13:02:22;29.60;;;12.05;;
71963;SDS011;59834;52.124;5.422;2022-10-31T13:05:27;21.42;;;11.38;;
71963;SDS011;59834;52.124;5.422;2022-10-31T13:10:38;24.07;;;12.27;;
71963;SDS011;59834;52.124;5.422;2022-10-31T13:13:13;22.92;;;11.95;;
71963;SDS011;59834;52.124;5.422;2022-10-31T13:15:49;23.27;;;11.45;;
71963;SDS011;59834;52.124;5.422;2022-10-31T13:21:20;25.38;;;12.30;;
71963;SDS011;59834;52.124;5.422;2022-10-31T13:24:15;22.90;;;12.23;;
71963;SDS011;59834;52.124;5.422;2022-10-31T13:26:50;21.17;;;11.63;;
71963;SDS011;59834;52.124;5.422;2022-10-31T13:31:57;25.55;;;12.20;;
71963;SDS011;59834;52.124;5.422;2022-10-31T13:34:46;26.30;;;12.98;;
71963;SDS011;59834;52.124;5.422;2022-10-31T13:45:22;25.85;;;13.27;;
71963;SDS011;59834;52.124;5.422;2022-10-31T13:48:01;28.23;;;13.93;;
71963;SDS011;59834;52.124;5.422;2022-10-31T13:50:58;27.20;;;13.97;;
71963;SDS011;59834;52.124;5.422;2022-10-31T13:53:35;29.45;;;13.65;;
71963;SDS011;59834;52.124;5.422;2022-10-31T13:58:35;31.92;;;13.63;;
71963;SDS011;59834;52.124;5.422;2022-10-31T14:01:20;27.48;;;13.93;;
71963;SDS011;59834;52.124;5.422;2022-10-31T14:09:35;24.60;;;13.13;;
71963;SDS011;59834;52.124;5.422;2022-10-31T14:12:06;26.88;;;12.65;;
71963;SDS011;59834;52.124;5.422;2022-10-31T14:14:40;28.20;;;12.85;;
71963;SDS011;59834;52.124;5.422;2022-10-31T14:17:16;27.37;;;13.77;;
71963;SDS011;59834;52.124;5.422;2022-10-31T14:22:32;575.67;;;81.80;;
71963;SDS011;59834;52.124;5.422;2022-10-31T14:27:51;39.10;;;17.20;;
71963;SDS011;59834;52.124;5.422;2022-10-31T14:30:19;32.93;;;17.33;;
71963;SDS011;59834;52.124;5.422;2022-10-31T14:33:32;29.60;;;14.50;;
71963;SDS011;59834;52.124;5.422;2022-10-31T14:36:32;28.25;;;13.70;;
71963;SDS011;59834;52.124;5.422;2022-10-31T14:49:31;28.65;;;14.57;;
71963;SDS011;59834;52.124;5.422;2022-10-31T14:51:59;23.33;;;11.80;;
71963;SDS011;59834;52.124;5.422;2022-10-31T14:54:33;29.63;;;13.02;;
71963;SDS011;59834;52.124;5.422;2022-10-31T14:57:04;26.37;;;13.13;;
71963;SDS011;59834;52.124;5.422;2022-10-31T14:59:33;30.95;;;12.65;;
71963;SDS011;59834;52.124;5.422;2022-10-31T15:02:14;24.60;;;12.85;;
71963;SDS011;59834;52.124;5.422;2022-10-31T15:04:47;20.30;;;12.82;;
71963;SDS011;59834;52.124;5.422;2022-10-31T15:07:24;24.50;;;13.00;;
71963;SDS011;59834;52.124;5.422;2022-10-31T15:10:36;30.77;;;13.60;;
71963;SDS011;59834;52.124;5.422;2022-10-31T15:12:47;28.13;;;12.88;;
71963;SDS011;59834;52.124;5.422;2022-10-31T15:15:17;30.40;;;12.98;;
71963;SDS011;59834;52.124;5.422;2022-10-31T15:17:47;29.83;;;14.30;;
71963;SDS011;59834;52.124;5.422;2022-10-31T15:20:20;22.95;;;12.15;;
71963;SDS011;59834;52.124;5.422;2022-10-31T15:22:53;27.17;;;13.17;;
71963;SDS011;59834;52.124;5.422;2022-10-31T15:25:22;30.00;;;13.20;;
71963;SDS011;59834;52.124;5.422;2022-10-31T15:27:51;32.50;;;13.75;;
71963;SDS011;59834;52.124;5.422;2022-10-31T15:32:50;32.92;;;13.10;;
71963;SDS011;59834;52.124;5.422;2022-10-31T15:35:25;27.50;;;13.23;;
71963;SDS011;59834;52.124;5.422;2022-10-31T15:37:57;32.53;;;12.73;;
71963;SDS011;59834;52.124;5.422;2022-10-31T15:40:26;24.50;;;12.95;;
71963;SDS011;59834;52.124;5.422;2022-10-31T15:42:55;22.85;;;12.43;;
71963;SDS011;59834;52.124;5.422;2022-10-31T15:45:26;26.85;;;12.15;;
71963;SDS011;59834;52.124;5.422;2022-10-31T15:47:58;30.87;;;12.80;;
71963;SDS011;59834;52.124;5.422;2022-10-31T15:50:32;27.33;;;13.48;;
71963;SDS011;59834;52.124;5.422;2022-10-31T15:53:04;29.35;;;13.05;;
71963;SDS011;59834;52.124;5.422;2022-10-31T15:55:34;42.60;;;15.80;;
71963;SDS011;59834;52.124;5.422;2022-10-31T15:58:12;91.65;;;25.02;;
71963;SDS011;59834;52.124;5.422;2022-10-31T16:00:40;44.20;;;15.80;;
71963;SDS011;59834;52.124;5.422;2022-10-31T16:03:21;35.85;;;17.23;;
71963;SDS011;59834;52.124;5.422;2022-10-31T16:05:52;32.42;;;14.85;;
71963;SDS011;59834;52.124;5.422;2022-10-31T16:08:45;27.05;;;13.40;;
71963;SDS011;59834;52.124;5.422;2022-10-31T16:16:31;26.52;;;12.05;;
71963;SDS011;59834;52.124;5.422;2022-10-31T16:19:02;24.20;;;13.30;;
71963;SDS011;59834;52.124;5.422;2022-10-31T16:21:32;25.35;;;12.77;;
71963;SDS011;59834;52.124;5.422;2022-10-31T16:24:02;26.95;;;12.13;;
71963;SDS011;59834;52.124;5.422;2022-10-31T16:26:37;27.03;;;13.00;;
71963;SDS011;59834;52.124;5.422;2022-10-31T16:29:03;23.33;;;11.80;;
71963;SDS011;59834;52.124;5.422;2022-10-31T16:31:37;30.27;;;15.27;;
71963;SDS011;59834;52.124;5.422;2022-10-31T16:34:17;22.83;;;11.07;;
71963;SDS011;59834;52.124;5.422;2022-10-31T16:36:51;27.10;;;12.60;;
71963;SDS011;59834;52.124;5.422;2022-10-31T16:39:18;20.40;;;11.00;;
71963;SDS011;59834;52.124;5.422;2022-10-31T16:41:45;25.92;;;13.68;;
71963;SDS011;59834;52.124;5.422;2022-10-31T16:44:23;55.35;;;25.08;;
71963;SDS011;59834;52.124;5.422;2022-10-31T16:49:40;90.75;;;33.22;;
71963;SDS011;59834;52.124;5.422;2022-10-31T16:52:12;114.50;;;44.77;;
71963;SDS011;59834;52.124;5.422;2022-10-31T16:54:39;159.95;;;59.92;;
71963;SDS011;59834;52.124;5.422;2022-10-31T16:57:05;46.10;;;22.23;;
71963;SDS011;59834;52.124;5.422;2022-10-31T16:59:32;34.25;;;15.90;;
71963;SDS011;59834;52.124;5.422;2022-10-31T17:02:00;24.38;;;13.68;;
71963;SDS011;59834;52.124;5.422;2022-10-31T17:04:30;33.93;;;12.57;;
71963;SDS011;59834;52.124;5.422;2022-10-31T17:06:57;32.17;;;13.27;;
71963;SDS011;59834;52.124;5.422;2022-10-31T17:09:23;26.23;;;14.10;;
71963;SDS011;59834;52.124;5.422;2022-10-31T17:11:50;28.77;;;12.60;;
71963;SDS011;59834;52.124;5.422;2022-10-31T17:14:19;34.78;;;16.88;;
71963;SDS011;59834;52.124;5.422;2022-10-31T17:16:46;25.47;;;13.50;;
71963;SDS011;59834;52.124;5.422;2022-10-31T17:19:13;28.60;;;13.88;;
71963;SDS011;59834;52.124;5.422;2022-10-31T17:21:40;27.52;;;13.35;;
71963;SDS011;59834;52.124;5.422;2022-10-31T17:24:08;25.98;;;13.15;;
71963;SDS011;59834;52.124;5.422;2022-10-31T17:26:38;27.90;;;12.63;;
71963;SDS011;59834;52.124;5.422;2022-10-31T17:29:05;29.87;;;13.97;;
71963;SDS011;59834;52.124;5.422;2022-10-31T17:31:32;23.38;;;12.18;;